createdAt,value
2022-09-06T00:00:30.195Z,4.80
2022-09-06T00:02:58.388Z,4.90
2022-09-06T00:05:27.308Z,4.70
2022-09-06T00:07:55.346Z,4.50
2022-09-06T00:10:23.444Z,5.20
2022-09-06T00:12:51.528Z,4.70
2022-09-06T00:15:20.005Z,5.40
2022-09-06T00:17:49.031Z,4.80
2022-09-06T00:20:18.009Z,4.90
2022-09-06T00:22:45.942Z,5.30
2022-09-06T00:25:14.742Z,5.10
2022-09-06T00:27:42.953Z,4.70
2022-09-06T00:30:12.053Z,4.50
2022-09-06T00:32:41.287Z,4.50
2022-09-06T00:35:09.651Z,4.50
2022-09-06T00:37:37.656Z,5.20
2022-09-06T00:40:06.301Z,5.10
2022-09-06T00:42:34.261Z,5.10
2022-09-06T00:45:02.630Z,4.80
2022-09-06T00:47:30.985Z,4.80
2022-09-06T00:50:00.824Z,4.90
2022-09-06T00:52:30.579Z,4.70
2022-09-06T00:54:59.861Z,5.30
2022-09-06T00:57:31.002Z,4.80
2022-09-06T01:00:04.813Z,4.90
2022-09-06T01:02:32.990Z,4.90
2022-09-06T01:05:02.884Z,4.60
2022-09-06T01:07:42.929Z,4.60
2022-09-06T01:10:29.001Z,4.90
2022-09-06T01:13:18.672Z,5.30
2022-09-06T01:16:31.947Z,4.90
2022-09-06T01:19:21.286Z,4.90
2022-09-06T01:22:17.302Z,4.70
2022-09-06T01:24:48.497Z,4.70
2022-09-06T01:27:44.297Z,5.50
2022-09-06T01:30:14.711Z,4.70
2022-09-06T01:32:57.650Z,5.60
2022-09-06T01:35:34.458Z,5.00
2022-09-06T01:38:04.020Z,4.90
2022-09-06T01:40:36.528Z,5.30
2022-09-06T01:43:11.051Z,4.70
2022-09-06T01:46:12.866Z,4.60
2022-09-06T01:48:46.842Z,4.90
2022-09-06T01:51:20.839Z,5.10
2022-09-06T01:54:06.319Z,4.80
2022-09-06T01:59:31.303Z,4.10
2022-09-06T02:02:28.083Z,4.50
2022-09-06T02:05:09.199Z,4.50
2022-09-06T02:07:38.503Z,5.00
2022-09-06T02:10:09.213Z,5.40
2022-09-06T02:12:41.339Z,4.70
2022-09-06T02:15:19.988Z,4.80
2022-09-06T02:17:56.359Z,4.80
2022-09-06T02:20:28.831Z,4.40
2022-09-06T02:23:01.700Z,4.00
2022-09-06T02:25:44.036Z,4.40
2022-09-06T02:28:14.921Z,4.30
2022-09-06T02:30:49.302Z,4.40
2022-09-06T02:33:21.119Z,4.20
2022-09-06T02:35:52.330Z,4.20
2022-09-06T02:38:27.181Z,4.30
2022-09-06T02:40:57.090Z,4.90
2022-09-06T02:43:25.044Z,4.60
2022-09-06T02:45:53.438Z,4.20
2022-09-06T02:48:22.523Z,4.40
2022-09-06T02:50:50.506Z,4.10
2022-09-06T02:53:20.681Z,4.40
2022-09-06T02:55:49.174Z,4.00
2022-09-06T02:58:17.339Z,4.20
2022-09-06T03:00:45.446Z,4.70
2022-09-06T03:03:13.577Z,4.80
2022-09-06T03:05:41.814Z,4.70
2022-09-06T03:08:09.916Z,5.00
2022-09-06T03:10:38.157Z,4.80
2022-09-06T03:13:06.259Z,4.90
2022-09-06T03:15:34.792Z,4.60
2022-09-06T03:18:02.780Z,4.60
2022-09-06T03:20:35.043Z,4.50
2022-09-06T03:23:05.685Z,4.80
2022-09-06T03:25:33.724Z,4.60
2022-09-06T03:28:01.984Z,4.50
2022-09-06T03:30:30.066Z,4.90
2022-09-06T03:33:02.597Z,4.90
2022-09-06T03:35:31.544Z,5.30
2022-09-06T03:37:59.528Z,4.60
2022-09-06T03:40:27.581Z,5.10
2022-09-06T03:42:55.627Z,5.00
2022-09-06T03:45:23.902Z,6.30
2022-09-06T03:47:51.930Z,5.10
2022-09-06T03:50:20.015Z,5.90
2022-09-06T03:52:48.130Z,5.20
2022-09-06T03:55:16.354Z,5.50
2022-09-06T03:57:44.427Z,5.40
2022-09-06T04:00:13.441Z,4.60
2022-09-06T04:02:41.535Z,5.00
2022-09-06T04:05:10.364Z,4.80
2022-09-06T04:07:38.354Z,5.00
2022-09-06T04:10:07.142Z,5.00
2022-09-06T04:12:35.379Z,4.90
2022-09-06T04:15:03.977Z,5.40
2022-09-06T04:17:32.003Z,5.40
2022-09-06T04:20:03.022Z,5.90
2022-09-06T04:22:31.731Z,5.50
2022-09-06T04:25:01.641Z,4.80
2022-09-06T04:27:30.783Z,4.30
2022-09-06T04:29:59.106Z,5.40
2022-09-06T04:32:27.256Z,5.10
2022-09-06T04:34:55.263Z,5.60
2022-09-06T04:37:23.751Z,6.00
2022-09-06T04:39:51.910Z,5.80
2022-09-06T04:42:20.041Z,5.70
2022-09-06T04:44:48.208Z,5.20
2022-09-06T04:47:18.314Z,5.40
2022-09-06T04:49:48.332Z,5.40
2022-09-06T04:52:18.366Z,4.90
2022-09-06T04:54:46.535Z,4.60
2022-09-06T04:57:14.635Z,5.20
2022-09-06T04:59:42.891Z,5.50
2022-09-06T05:02:11.262Z,5.30
2022-09-06T05:04:39.367Z,5.20
2022-09-06T05:07:08.852Z,4.80
2022-09-06T05:09:37.094Z,5.00
2022-09-06T05:12:07.392Z,6.10
2022-09-06T05:14:36.057Z,5.50
2022-09-06T05:17:04.365Z,5.70
2022-09-06T05:19:32.522Z,6.40
2022-09-06T05:22:00.954Z,6.30
2022-09-06T05:24:29.493Z,5.40
2022-09-06T05:27:03.867Z,5.40
2022-09-06T05:29:31.982Z,6.70
2022-09-06T05:32:00.163Z,6.90
2022-09-06T05:34:28.349Z,7.70
2022-09-06T05:36:57.541Z,7.50
2022-09-06T05:39:26.175Z,7.10
2022-09-06T05:41:54.471Z,7.50
2022-09-06T05:44:22.596Z,7.40
2022-09-06T05:46:50.945Z,7.80
2022-09-06T05:49:19.079Z,9.60
2022-09-06T05:51:51.706Z,10.50
2022-09-06T05:54:20.043Z,11.20
2022-09-06T05:56:48.519Z,12.10
2022-09-06T05:59:17.143Z,10.50
2022-09-06T06:01:50.410Z,9.70
2022-09-06T06:04:19.822Z,10.00
2022-09-06T06:06:49.111Z,54.80
2022-09-06T06:09:17.697Z,10.60
2022-09-06T06:11:46.002Z,10.50
2022-09-06T06:14:14.053Z,12.10
2022-09-06T06:16:42.226Z,12.00
2022-09-06T06:19:10.456Z,10.60
2022-09-06T06:21:39.130Z,10.20
2022-09-06T06:24:07.455Z,10.60
2022-09-06T06:26:37.422Z,11.60
2022-09-06T06:29:09.617Z,11.50
2022-09-06T06:31:41.008Z,11.50
2022-09-06T06:34:09.275Z,12.70
2022-09-06T06:36:38.207Z,12.20
2022-09-06T06:39:08.733Z,11.50
2022-09-06T06:41:37.843Z,11.20
2022-09-06T06:44:24.987Z,11.00
2022-09-06T06:46:53.483Z,10.90
2022-09-06T06:49:21.613Z,11.30
2022-09-06T06:51:50.696Z,12.80
2022-09-06T06:54:19.154Z,10.20
2022-09-06T06:56:47.615Z,10.50
2022-09-06T06:59:16.487Z,10.70
2022-09-06T07:01:45.002Z,10.80
2022-09-06T07:04:14.488Z,12.60
2022-09-06T07:12:27.812Z,12.70
2022-09-06T07:14:56.337Z,11.60
2022-09-06T07:17:24.700Z,12.30
2022-09-06T07:22:42.667Z,13.00
2022-09-06T07:25:14.417Z,14.10
2022-09-06T07:30:21.364Z,12.00
2022-09-06T07:32:49.943Z,11.40
2022-09-06T07:35:20.803Z,12.10
2022-09-06T07:37:56.394Z,13.10
2022-09-06T07:40:26.985Z,14.00
2022-09-06T07:42:59.643Z,14.20
2022-09-06T07:45:28.636Z,14.60
2022-09-06T07:48:00.790Z,13.90
2022-09-06T07:50:48.007Z,14.30
2022-09-06T07:53:24.646Z,12.90
2022-09-06T07:56:00.989Z,12.30
2022-09-06T07:58:30.761Z,12.80
2022-09-06T08:01:31.637Z,13.20
2022-09-06T08:04:18.764Z,15.80
2022-09-06T08:09:42.229Z,11.60
2022-09-06T08:12:10.605Z,11.00
2022-09-06T08:14:39.271Z,12.10
2022-09-06T08:17:10.345Z,11.80
2022-09-06T08:19:39.205Z,10.90
2022-09-06T08:22:07.624Z,26.20
2022-09-06T08:24:38.815Z,12.90
2022-09-06T08:27:11.404Z,10.30
2022-09-06T08:29:40.138Z,9.60
2022-09-06T08:32:08.563Z,9.10
2022-09-06T08:34:37.325Z,9.10
2022-09-06T08:37:05.861Z,8.40
2022-09-06T08:39:35.004Z,8.00
2022-09-06T08:42:07.812Z,9.70
2022-09-06T08:44:56.745Z,6.60
2022-09-06T08:47:26.415Z,7.30
2022-09-06T08:50:02.546Z,7.80
2022-09-06T08:52:35.064Z,6.80
2022-09-06T08:55:06.726Z,6.30
2022-09-06T08:57:58.978Z,6.40
2022-09-06T09:00:27.880Z,6.30
2022-09-06T09:03:05.642Z,6.70
2022-09-06T09:05:37.531Z,10.20
2022-09-06T09:08:16.238Z,8.50
2022-09-06T09:10:56.981Z,5.20
2022-09-06T09:13:35.962Z,5.80
2022-09-06T09:16:07.312Z,7.00
2022-09-06T09:18:40.259Z,4.50
2022-09-06T09:21:11.131Z,4.60
2022-09-06T09:23:39.745Z,6.70
2022-09-06T09:26:16.726Z,6.10
2022-09-06T09:29:14.183Z,5.30
2022-09-06T09:31:56.365Z,6.50
2022-09-06T09:34:34.408Z,5.40
2022-09-06T09:40:03.169Z,5.60
2022-09-06T09:42:39.962Z,4.30
2022-09-06T09:45:31.275Z,4.90
2022-09-06T09:48:29.484Z,4.90
2022-09-06T09:51:25.442Z,9.20
2022-09-06T09:54:04.803Z,4.70
2022-09-06T09:56:53.104Z,5.20
2022-09-06T09:59:27.127Z,4.10
2022-09-06T10:02:00.281Z,4.30
2022-09-06T10:04:46.028Z,5.10
2022-09-06T10:07:18.539Z,6.90
2022-09-06T10:09:52.011Z,3.80
2022-09-06T10:12:35.310Z,3.00
2022-09-06T10:15:06.996Z,3.20
2022-09-06T10:17:48.448Z,3.60
2022-09-06T10:20:19.377Z,3.50
2022-09-06T10:23:10.416Z,3.50
2022-09-06T10:26:13.844Z,3.60
2022-09-06T10:28:42.769Z,3.30
2022-09-06T10:31:16.639Z,3.70
2022-09-06T10:34:03.192Z,3.60
2022-09-06T10:36:49.991Z,3.40
2022-09-06T10:39:42.238Z,3.10
2022-09-06T10:42:21.286Z,3.60
2022-09-06T10:45:26.929Z,3.40
2022-09-06T10:47:58.490Z,3.50
2022-09-06T10:50:57.796Z,3.40
2022-09-06T10:53:59.106Z,4.10
2022-09-06T10:57:07.199Z,3.30
2022-09-06T10:59:56.918Z,4.20
2022-09-06T11:02:40.730Z,3.70
2022-09-06T11:11:24.416Z,5.20
2022-09-06T11:13:53.310Z,3.80
2022-09-06T11:16:32.679Z,4.10
2022-09-06T11:19:11.485Z,3.40
2022-09-06T11:22:08.471Z,3.70
2022-09-06T11:24:58.954Z,3.90
2022-09-06T11:27:56.155Z,3.30
2022-09-06T11:30:54.358Z,5.50
2022-09-06T11:33:35.542Z,3.50
2022-09-06T11:36:26.866Z,4.10
2022-09-06T11:39:00.260Z,4.60
2022-09-06T11:41:36.204Z,3.60
2022-09-06T11:44:20.643Z,3.30
2022-09-06T11:46:57.077Z,6.50
2022-09-06T11:49:35.862Z,5.10
2022-09-06T11:52:46.514Z,4.80
2022-09-06T11:55:22.634Z,4.00
2022-09-06T11:58:01.737Z,3.60
2022-09-06T12:00:30.155Z,3.80
2022-09-06T12:06:33.097Z,3.40
2022-09-06T12:09:30.082Z,3.50
2022-09-06T12:12:00.865Z,3.90
2022-09-06T12:14:40.774Z,2.20
2022-09-06T12:17:10.094Z,3.90
2022-09-06T12:19:54.367Z,3.10
2022-09-06T12:22:43.488Z,2.30
2022-09-06T12:25:51.816Z,4.00
2022-09-06T12:29:00.178Z,2.90
2022-09-06T12:31:40.118Z,2.40
2022-09-06T12:34:22.067Z,2.80
2022-09-06T12:37:10.795Z,4.80
2022-09-06T12:39:39.645Z,2.90
2022-09-06T12:42:16.600Z,3.00
2022-09-06T12:44:51.978Z,3.10
2022-09-06T12:47:35.435Z,2.80
2022-09-06T12:50:15.322Z,1.90
2022-09-06T12:52:54.870Z,3.60
2022-09-06T12:55:32.818Z,2.70
2022-09-06T12:58:29.749Z,1.70
2022-09-06T13:01:14.589Z,1.60
2022-09-06T13:04:08.251Z,1.60
2022-09-06T13:06:42.929Z,2.10
2022-09-06T13:09:17.114Z,1.70
2022-09-06T13:11:51.299Z,1.90
2022-09-06T13:14:29.237Z,3.80
2022-09-06T13:17:01.689Z,9.10
2022-09-06T13:19:30.435Z,2.20
2022-09-06T13:22:03.954Z,2.00
2022-09-06T13:24:46.898Z,2.40
2022-09-06T13:27:38.519Z,1.70
2022-09-06T13:30:11.918Z,2.30
2022-09-06T13:32:50.339Z,2.70
2022-09-06T13:35:24.066Z,1.30
2022-09-06T13:37:52.876Z,1.70
2022-09-06T13:41:09.838Z,1.50
2022-09-06T13:43:42.957Z,1.40
2022-09-06T13:46:11.885Z,1.40
2022-09-06T13:48:41.621Z,1.90
2022-09-06T13:51:11.124Z,2.00
2022-09-06T13:53:39.369Z,1.90
2022-09-06T13:56:08.899Z,2.30
2022-09-06T13:58:37.866Z,1.90
2022-09-06T14:01:10.135Z,2.30
2022-09-06T14:03:42.198Z,2.50
2022-09-06T14:06:11.785Z,1.70
2022-09-06T14:11:31.504Z,1.70
2022-09-06T14:13:59.994Z,1.40
2022-09-06T14:16:28.489Z,1.50
2022-09-06T14:19:00.129Z,1.40
2022-09-06T14:21:28.982Z,1.20
2022-09-06T14:24:03.860Z,1.80
2022-09-06T14:26:34.443Z,6.30
2022-09-06T14:29:04.505Z,1.60
2022-09-06T14:31:33.295Z,1.50
2022-09-06T14:34:02.846Z,4.30
2022-09-06T14:36:34.009Z,3.50
2022-09-06T14:39:05.634Z,1.80
2022-09-06T14:41:34.398Z,1.60
2022-09-06T14:44:04.413Z,1.80
2022-09-06T14:46:32.862Z,1.70
2022-09-06T14:49:10.264Z,1.80
2022-09-06T14:51:40.830Z,1.70
2022-09-06T14:54:13.164Z,1.60
2022-09-06T14:56:43.968Z,1.70
2022-09-06T14:59:13.465Z,1.70
2022-09-06T15:01:42.100Z,2.30
2022-09-06T15:04:12.066Z,1.90
2022-09-06T15:06:45.119Z,1.80
2022-09-06T15:09:17.518Z,1.50
2022-09-06T15:11:48.959Z,2.80
2022-09-06T15:14:23.571Z,4.30
2022-09-06T15:17:00.173Z,1.70
2022-09-06T15:19:30.559Z,1.40
2022-09-06T15:22:03.714Z,1.70
2022-09-06T15:24:33.891Z,1.70
2022-09-06T15:27:02.291Z,1.90
2022-09-06T15:29:32.842Z,1.60
2022-09-06T15:32:01.126Z,2.40
2022-09-06T15:34:29.894Z,2.00
2022-09-06T15:36:58.568Z,1.40
2022-09-06T15:39:27.995Z,2.30
2022-09-06T15:41:58.058Z,1.70
2022-09-06T15:44:26.743Z,1.40
2022-09-06T15:47:02.387Z,1.70
2022-09-06T15:49:32.914Z,1.80
2022-09-06T15:52:03.162Z,1.60
2022-09-06T15:54:50.294Z,2.00
2022-09-06T15:57:18.756Z,1.60
2022-09-06T15:59:48.632Z,1.80
2022-09-06T16:02:17.253Z,1.80
2022-09-06T16:04:46.825Z,2.00
2022-09-06T16:07:15.381Z,1.80
2022-09-06T16:09:45.553Z,2.20
2022-09-06T16:12:15.210Z,2.00
2022-09-06T16:14:43.626Z,2.70
2022-09-06T16:17:12.524Z,2.20
2022-09-06T16:19:41.470Z,2.50
2022-09-06T16:22:10.339Z,3.20
2022-09-06T16:24:39.337Z,2.60
2022-09-06T16:27:07.816Z,2.80
2022-09-06T16:29:36.963Z,3.70
2022-09-06T16:32:05.349Z,4.10
2022-09-06T16:34:34.119Z,4.90
2022-09-06T16:37:08.214Z,4.00
2022-09-06T16:39:37.865Z,3.20
2022-09-06T16:42:06.897Z,3.50
2022-09-06T16:44:35.429Z,2.90
2022-09-06T16:47:05.217Z,3.30
2022-09-06T16:49:36.702Z,3.20
2022-09-06T16:52:05.314Z,3.40
2022-09-06T16:54:34.091Z,4.90
2022-09-06T16:57:05.182Z,5.20
2022-09-06T16:59:34.508Z,4.70
2022-09-06T17:02:03.450Z,4.40
2022-09-06T17:04:32.099Z,3.50
2022-09-06T17:07:00.661Z,3.10
2022-09-06T17:09:29.012Z,3.30
2022-09-06T17:11:57.449Z,3.90
2022-09-06T17:14:25.939Z,3.80
2022-09-06T17:17:06.047Z,4.50
2022-09-06T17:19:37.711Z,4.00
2022-09-06T17:22:06.281Z,4.50
2022-09-06T17:24:34.472Z,5.60
2022-09-06T17:27:04.637Z,4.40
2022-09-06T17:29:33.338Z,4.00
2022-09-06T17:32:04.484Z,3.80
2022-09-06T17:34:32.805Z,3.50
2022-09-06T17:37:01.069Z,3.90
2022-09-06T17:39:29.611Z,4.00
2022-09-06T17:41:59.794Z,3.70
2022-09-06T17:44:28.751Z,4.10
2022-09-06T17:47:14.027Z,4.20
2022-09-06T17:49:43.639Z,4.10
2022-09-06T17:52:12.457Z,4.40
2022-09-06T17:54:41.260Z,4.10
2022-09-06T17:57:10.240Z,3.50
2022-09-06T17:59:39.674Z,4.30
2022-09-06T18:02:08.610Z,4.60
2022-09-06T18:04:37.114Z,4.40
2022-09-06T18:07:05.378Z,5.30
2022-09-06T18:09:34.127Z,4.10
2022-09-06T18:12:04.024Z,4.50
2022-09-06T18:14:34.562Z,4.10
2022-09-06T18:17:03.033Z,4.80
2022-09-06T18:19:31.240Z,4.40
2022-09-06T18:21:59.589Z,3.90
2022-09-06T18:24:29.202Z,4.00
2022-09-06T18:26:57.636Z,4.10
2022-09-06T18:29:25.768Z,4.70
2022-09-06T18:31:54.187Z,4.80
2022-09-06T18:34:22.867Z,4.30
2022-09-06T18:36:51.206Z,4.80
2022-09-06T18:39:20.559Z,4.60
2022-09-06T18:42:01.155Z,4.50
2022-09-06T18:44:32.941Z,4.20
2022-09-06T18:47:03.417Z,3.90
2022-09-06T18:49:33.926Z,3.50
2022-09-06T18:52:04.191Z,4.00
2022-09-06T18:54:32.876Z,4.00
2022-09-06T18:57:01.169Z,3.70
2022-09-06T18:59:29.315Z,4.50
2022-09-06T19:01:58.007Z,4.70
2022-09-06T19:04:26.412Z,4.30
2022-09-06T19:06:54.776Z,4.00
2022-09-06T19:09:23.429Z,3.90
2022-09-06T19:11:53.299Z,4.30
2022-09-06T19:14:22.094Z,4.70
2022-09-06T19:16:51.983Z,4.90
2022-09-06T19:19:21.972Z,4.20
2022-09-06T19:21:50.913Z,4.40
2022-09-06T19:24:22.929Z,5.40
2022-09-06T19:26:53.169Z,4.50
2022-09-06T19:29:21.451Z,4.20
2022-09-06T19:31:49.989Z,4.30
2022-09-06T19:34:18.588Z,4.50
2022-09-06T19:36:47.265Z,4.70
2022-09-06T19:39:16.753Z,4.00
2022-09-06T19:41:47.890Z,5.30
2022-09-06T19:44:17.120Z,5.10
2022-09-06T19:46:47.297Z,4.80
2022-09-06T19:49:17.724Z,5.10
2022-09-06T19:51:49.210Z,4.90
2022-09-06T19:54:18.892Z,5.20
2022-09-06T19:56:47.335Z,5.40
2022-09-06T19:59:18.119Z,5.50
2022-09-06T20:01:47.806Z,5.50
2022-09-06T20:04:16.529Z,5.10
2022-09-06T20:06:44.746Z,5.00
2022-09-06T20:09:13.627Z,5.40
2022-09-06T20:11:42.620Z,6.20
2022-09-06T20:14:12.175Z,5.90
2022-09-06T20:16:43.130Z,5.60
2022-09-06T20:19:12.762Z,6.00
2022-09-06T20:21:40.968Z,6.30
2022-09-06T20:24:09.573Z,5.50
2022-09-06T20:26:37.983Z,5.50
2022-09-06T20:29:07.263Z,6.10
2022-09-06T20:31:37.305Z,5.60
2022-09-06T20:34:07.156Z,6.00
2022-09-06T20:36:37.398Z,5.80
2022-09-06T20:39:05.602Z,5.80
2022-09-06T20:41:34.252Z,5.00
2022-09-06T20:44:02.788Z,5.10
2022-09-06T20:46:35.303Z,4.90
2022-09-06T20:49:05.178Z,5.80
2022-09-06T20:51:35.680Z,6.50
2022-09-06T20:54:05.688Z,5.60
2022-09-06T20:56:39.482Z,4.40
2022-09-06T20:59:09.928Z,4.20
2022-09-06T21:01:42.259Z,4.60
2022-09-06T21:04:12.558Z,4.50
2022-09-06T21:06:41.317Z,4.90
2022-09-06T21:09:13.349Z,5.60
2022-09-06T21:11:41.486Z,5.40
2022-09-06T21:14:10.987Z,5.20
2022-09-06T21:16:40.787Z,5.00
2022-09-06T21:19:11.010Z,5.30
2022-09-06T21:21:39.881Z,5.00
2022-09-06T21:24:09.833Z,5.20
2022-09-06T21:26:38.955Z,5.90
2022-09-06T21:29:07.168Z,5.60
2022-09-06T21:31:37.459Z,5.80
2022-09-06T21:34:11.520Z,5.20
2022-09-06T21:36:43.250Z,5.30
2022-09-06T21:39:14.928Z,5.30
2022-09-06T21:41:44.174Z,4.60
2022-09-06T21:44:13.337Z,5.10
2022-09-06T21:46:42.229Z,4.90
2022-09-06T21:49:12.933Z,5.60
2022-09-06T21:51:42.365Z,5.00
2022-09-06T21:54:10.578Z,5.00
2022-09-06T21:56:40.395Z,4.90
2022-09-06T21:59:09.257Z,4.80
2022-09-06T22:01:39.515Z,4.90
2022-09-06T22:04:08.338Z,4.80
2022-09-06T22:06:37.929Z,4.90
2022-09-06T22:09:11.161Z,5.00
2022-09-06T22:11:42.161Z,5.80
2022-09-06T22:14:13.430Z,4.40
2022-09-06T22:16:42.293Z,4.60
2022-09-06T22:19:11.031Z,4.30
2022-09-06T22:21:39.695Z,4.80
2022-09-06T22:24:10.220Z,4.70
2022-09-06T22:26:40.136Z,5.00
2022-09-06T22:29:10.958Z,4.70
2022-09-06T22:31:39.507Z,4.40
2022-09-06T22:34:08.385Z,5.10
2022-09-06T22:36:36.578Z,4.60
2022-09-06T22:39:05.489Z,4.20
2022-09-06T22:41:34.330Z,4.70
2022-09-06T22:44:04.092Z,5.00
2022-09-06T22:46:33.095Z,5.60
2022-09-06T22:49:02.617Z,4.80
2022-09-06T22:51:30.874Z,4.70
2022-09-06T22:53:58.858Z,4.00
2022-09-06T22:56:29.047Z,4.20
2022-09-06T22:58:59.970Z,4.30
2022-09-06T23:01:28.858Z,3.70
2022-09-06T23:03:56.994Z,4.60
2022-09-06T23:06:25.763Z,4.80
2022-09-06T23:08:53.927Z,4.50
2022-09-06T23:11:21.934Z,4.40
2022-09-06T23:13:54.913Z,4.50
2022-09-06T23:16:23.173Z,4.20
2022-09-06T23:18:51.407Z,4.20
2022-09-06T23:21:22.612Z,4.50
2022-09-06T23:23:52.851Z,4.40
2022-09-06T23:26:23.205Z,4.60
2022-09-06T23:28:56.568Z,4.20
2022-09-06T23:31:31.662Z,3.80
2022-09-06T23:36:29.105Z,3.80
2022-09-06T23:38:57.671Z,3.80
2022-09-06T23:41:25.863Z,4.10
2022-09-06T23:43:54.719Z,4.50
2022-09-06T23:46:23.122Z,4.00
2022-09-06T23:48:51.225Z,4.50
2022-09-06T23:51:19.890Z,4.50
2022-09-06T23:53:48.113Z,4.30
2022-09-06T23:56:16.289Z,4.30
2022-09-06T23:58:44.329Z,4.30
